createdAt,value
2018-08-07T00:01:28.716Z,22.10
2018-08-07T00:03:57.511Z,22.10
2018-08-07T00:06:26.166Z,22.00
2018-08-07T00:08:54.842Z,21.90
2018-08-07T00:11:23.517Z,21.80
2018-08-07T00:13:52.213Z,21.90
2018-08-07T00:16:20.888Z,21.80
2018-08-07T00:18:49.524Z,21.80
2018-08-07T00:21:18.191Z,21.80
2018-08-07T00:23:46.877Z,21.80
2018-08-07T00:26:15.571Z,21.80
2018-08-07T00:28:44.166Z,21.70
2018-08-07T00:31:12.882Z,21.60
2018-08-07T00:33:41.621Z,21.60
2018-08-07T00:36:10.413Z,21.30
2018-08-07T00:38:39.180Z,21.30
2018-08-07T00:41:08.245Z,21.30
2018-08-07T00:43:36.900Z,21.20
2018-08-07T00:46:05.695Z,21.30
2018-08-07T00:48:34.279Z,21.10
2018-08-07T00:51:03.016Z,21.30
2018-08-07T00:53:31.628Z,21.20
2018-08-07T00:56:00.281Z,21.00
2018-08-07T00:58:28.952Z,20.90
2018-08-07T01:00:57.649Z,20.90
2018-08-07T01:03:26.339Z,21.00
2018-08-07T01:05:54.964Z,21.00
2018-08-07T01:08:23.541Z,21.00
2018-08-07T01:10:52.151Z,21.00
2018-08-07T01:13:20.826Z,21.00
2018-08-07T01:15:49.463Z,21.00
2018-08-07T01:18:18.078Z,21.00
2018-08-07T01:20:46.775Z,21.00
2018-08-07T01:23:15.481Z,21.00
2018-08-07T01:25:44.109Z,21.00
2018-08-07T01:28:12.731Z,21.00
2018-08-07T01:33:09.743Z,20.80
2018-08-07T01:35:38.353Z,20.80
2018-08-07T01:38:06.983Z,20.70
2018-08-07T01:40:35.618Z,20.60
2018-08-07T01:43:04.279Z,20.70
2018-08-07T01:45:32.929Z,20.80
2018-08-07T01:48:01.565Z,20.60
2018-08-07T01:50:30.180Z,20.60
2018-08-07T01:52:58.835Z,20.60
2018-08-07T01:55:28.372Z,20.50
2018-08-07T01:57:57.086Z,20.60
2018-08-07T02:00:25.763Z,20.70
2018-08-07T02:02:54.457Z,20.60
2018-08-07T02:05:23.153Z,20.60
2018-08-07T02:07:51.804Z,20.60
2018-08-07T02:10:20.544Z,20.60
2018-08-07T02:12:49.360Z,20.60
2018-08-07T02:15:18.036Z,20.50
2018-08-07T02:17:46.632Z,20.50
2018-08-07T02:20:16.767Z,20.50
2018-08-07T02:22:46.112Z,20.40
2018-08-07T02:25:18.188Z,20.30
2018-08-07T02:27:47.433Z,20.30
2018-08-07T02:30:16.830Z,20.40
2018-08-07T02:35:14.986Z,20.30
2018-08-07T02:37:44.760Z,20.30
2018-08-07T02:40:14.230Z,20.30
2018-08-07T02:42:43.406Z,20.10
2018-08-07T02:47:42.859Z,20.10
2018-08-07T02:50:13.284Z,20.20
2018-08-07T02:52:42.031Z,20.20
2018-08-07T02:55:11.364Z,20.00
2018-08-07T02:57:41.039Z,20.10
2018-08-07T03:00:14.595Z,20.00
2018-08-07T03:02:43.350Z,20.00
2018-08-07T03:05:12.109Z,19.90
2018-08-07T03:07:40.857Z,19.80
2018-08-07T03:10:10.157Z,19.80
2018-08-07T03:12:39.412Z,19.60
2018-08-07T03:15:11.515Z,19.70
2018-08-07T03:17:40.284Z,19.80
2018-08-07T03:20:09.372Z,19.70
2018-08-07T03:22:38.373Z,19.60
2018-08-07T03:25:09.194Z,19.60
2018-08-07T03:30:09.223Z,19.70
2018-08-07T03:32:37.982Z,19.70
2018-08-07T03:35:06.962Z,19.60
2018-08-07T03:37:35.867Z,19.70
2018-08-07T03:40:07.362Z,19.80
2018-08-07T03:42:36.137Z,19.70
2018-08-07T03:45:05.653Z,19.70
2018-08-07T03:47:35.089Z,19.70
2018-08-07T03:50:04.265Z,19.70
2018-08-07T03:52:33.180Z,19.60
2018-08-07T03:55:01.949Z,19.70
2018-08-07T03:57:30.711Z,19.70
2018-08-07T03:59:59.332Z,19.80
2018-08-07T04:02:27.961Z,19.80
2018-08-07T04:04:56.733Z,19.90
2018-08-07T04:07:25.373Z,19.90
2018-08-07T04:09:54.134Z,19.90
2018-08-07T04:12:22.883Z,20.00
2018-08-07T04:14:51.678Z,20.00
2018-08-07T04:17:20.317Z,20.00
2018-08-07T04:19:49.050Z,20.00
2018-08-07T04:22:17.745Z,20.00
2018-08-07T04:24:46.365Z,20.00
2018-08-07T04:27:15.222Z,20.20
2018-08-07T04:29:43.951Z,20.30
2018-08-07T04:32:12.627Z,20.40
2018-08-07T04:34:41.442Z,20.40
2018-08-07T04:37:10.138Z,20.50
2018-08-07T04:39:38.792Z,20.40
2018-08-07T04:44:35.823Z,20.60
2018-08-07T04:47:04.534Z,20.60
2018-08-07T04:49:33.176Z,20.70
2018-08-07T04:52:01.884Z,20.80
2018-08-07T04:54:30.564Z,20.80
2018-08-07T04:56:59.180Z,20.90
2018-08-07T04:59:27.835Z,21.00
2018-08-07T05:01:56.514Z,21.10
2018-08-07T05:04:25.307Z,21.30
2018-08-07T05:06:54.062Z,21.30
2018-08-07T05:11:50.893Z,21.50
2018-08-07T05:14:19.534Z,21.50
2018-08-07T05:16:48.184Z,21.70
2018-08-07T05:19:16.878Z,22.00
2018-08-07T05:21:45.594Z,22.90
2018-08-07T05:24:14.269Z,24.20
2018-08-07T05:26:42.885Z,25.80
2018-08-07T05:29:11.560Z,26.40
2018-08-07T05:31:40.363Z,27.20
2018-08-07T05:34:09.006Z,27.70
2018-08-07T05:36:37.827Z,28.00
2018-08-07T05:39:08.702Z,28.50
2018-08-07T05:41:37.165Z,28.60
2018-08-07T05:44:05.133Z,29.20
2018-08-07T05:46:33.759Z,30.20
2018-08-07T05:49:02.671Z,30.20
2018-08-07T05:51:32.183Z,30.70
2018-08-07T05:54:00.915Z,30.80
2018-08-07T05:56:28.742Z,31.60
2018-08-07T05:58:56.531Z,31.80
2018-08-07T06:03:52.056Z,32.00
2018-08-07T06:06:19.912Z,32.80
2018-08-07T06:08:47.732Z,33.70
2018-08-07T06:11:15.463Z,34.00
2018-08-07T06:13:43.208Z,34.70
2018-08-07T06:16:10.891Z,35.30
2018-08-07T06:18:38.647Z,34.20
2018-08-07T06:21:06.839Z,33.30
2018-08-07T06:26:02.056Z,33.30
2018-08-07T06:28:29.767Z,33.50
2018-08-07T06:30:57.586Z,34.20
2018-08-07T06:33:25.390Z,34.60
2018-08-07T06:35:53.157Z,35.40
2018-08-07T06:38:20.873Z,34.80
2018-08-07T06:40:48.656Z,35.20
2018-08-07T06:43:16.428Z,35.40
2018-08-07T06:45:44.408Z,36.80
2018-08-07T06:48:12.643Z,38.20
2018-08-07T06:50:40.431Z,39.00
2018-08-07T06:53:08.168Z,39.40
2018-08-07T06:55:36.025Z,39.30
2018-08-07T06:58:03.805Z,39.70
2018-08-07T07:00:31.580Z,41.20
2018-08-07T07:02:59.288Z,40.80
2018-08-07T07:05:27.059Z,41.50
2018-08-07T07:07:54.889Z,40.90
2018-08-07T07:10:22.837Z,41.00
2018-08-07T07:12:50.593Z,41.60
2018-08-07T07:15:18.524Z,41.70
2018-08-07T07:17:47.180Z,41.20
2018-08-07T07:20:15.753Z,41.80
2018-08-07T07:25:11.906Z,42.10
2018-08-07T07:27:40.385Z,43.00
2018-08-07T07:30:11.768Z,42.20
2018-08-07T07:32:39.613Z,41.80
2018-08-07T07:35:07.546Z,42.50
2018-08-07T07:37:35.583Z,42.80
2018-08-07T07:40:03.699Z,41.60
2018-08-07T07:42:31.473Z,42.20
2018-08-07T07:44:59.268Z,41.20
2018-08-07T07:47:27.222Z,43.90
2018-08-07T07:49:55.117Z,44.50
2018-08-07T07:52:22.937Z,45.00
2018-08-07T07:54:50.779Z,46.00
2018-08-07T07:57:18.670Z,44.70
2018-08-07T07:59:46.380Z,44.60
2018-08-07T08:02:14.160Z,44.90
2018-08-07T08:04:41.927Z,44.50
2018-08-07T08:07:09.810Z,45.70
2018-08-07T08:09:37.625Z,45.90
2018-08-07T08:12:06.358Z,45.50
2018-08-07T08:14:34.176Z,46.60
2018-08-07T08:17:01.896Z,47.20
2018-08-07T08:19:29.725Z,47.70
2018-08-07T08:21:57.542Z,47.50
2018-08-07T08:24:25.319Z,46.60
2018-08-07T08:26:53.174Z,46.70
2018-08-07T08:29:20.944Z,45.80
2018-08-07T08:31:48.725Z,46.90
2018-08-07T08:34:16.501Z,47.60
2018-08-07T08:36:44.396Z,47.90
2018-08-07T08:39:13.032Z,48.10
2018-08-07T08:41:41.428Z,47.00
2018-08-07T08:44:09.602Z,46.90
2018-08-07T08:46:37.879Z,47.80
2018-08-07T08:49:05.753Z,46.80
2018-08-07T08:51:33.530Z,46.30
2018-08-07T08:54:01.406Z,46.40
2018-08-07T08:56:29.287Z,46.80
2018-08-07T08:58:57.468Z,47.70
2018-08-07T09:01:25.313Z,47.70
2018-08-07T09:03:53.133Z,46.80
2018-08-07T09:06:21.182Z,47.10
2018-08-07T09:08:49.099Z,45.30
2018-08-07T09:11:16.915Z,46.80
2018-08-07T09:13:44.709Z,48.10
2018-08-07T09:16:12.556Z,48.50
2018-08-07T09:18:40.432Z,46.90
2018-08-07T09:21:08.312Z,47.90
2018-08-07T09:23:36.152Z,48.70
2018-08-07T09:26:03.988Z,47.20
2018-08-07T09:28:31.724Z,47.90
2018-08-07T09:30:59.463Z,48.60
2018-08-07T09:33:27.199Z,47.80
2018-08-07T09:35:55.713Z,47.70
2018-08-07T09:38:24.305Z,46.80
2018-08-07T09:40:52.821Z,47.60
2018-08-07T09:43:20.597Z,46.60
2018-08-07T09:45:49.153Z,47.20
2018-08-07T09:48:16.928Z,46.50
2018-08-07T09:50:45.465Z,44.50
2018-08-07T09:53:14.720Z,43.40
2018-08-07T09:55:43.315Z,42.50
2018-08-07T09:58:11.947Z,42.60
2018-08-07T10:00:45.681Z,41.40
2018-08-07T10:03:18.285Z,41.10
2018-08-07T10:05:46.768Z,39.90
2018-08-07T10:08:14.659Z,39.40
2018-08-07T10:10:42.471Z,39.00
2018-08-07T10:13:11.025Z,38.90
2018-08-07T10:15:39.556Z,38.80
2018-08-07T10:18:07.568Z,38.50
2018-08-07T10:20:35.592Z,38.10
2018-08-07T10:23:04.204Z,37.90
2018-08-07T10:25:32.636Z,37.70
2018-08-07T10:28:01.240Z,37.80
2018-08-07T10:30:29.889Z,37.30
2018-08-07T10:32:58.474Z,37.30
2018-08-07T10:35:27.048Z,37.40
2018-08-07T10:37:55.689Z,37.10
2018-08-07T10:40:25.744Z,37.00
2018-08-07T10:45:22.107Z,36.70
2018-08-07T10:47:50.952Z,36.40
2018-08-07T10:50:23.061Z,36.70
2018-08-07T10:52:51.937Z,36.80
2018-08-07T10:55:21.418Z,37.20
2018-08-07T11:00:21.893Z,37.10
2018-08-07T11:02:51.550Z,36.50
2018-08-07T11:05:20.680Z,36.50
2018-08-07T11:07:49.297Z,36.50
2018-08-07T11:10:18.366Z,36.50
2018-08-07T11:12:46.992Z,36.40
2018-08-07T11:15:21.089Z,36.40
2018-08-07T11:17:50.473Z,36.40
2018-08-07T11:20:19.550Z,36.60
2018-08-07T11:22:49.422Z,36.50
2018-08-07T11:25:19.264Z,36.40
2018-08-07T11:27:47.916Z,36.00
2018-08-07T11:30:18.519Z,36.20
2018-08-07T11:32:47.499Z,36.40
2018-08-07T11:35:16.385Z,36.40
2018-08-07T11:37:46.588Z,36.40
2018-08-07T11:40:16.719Z,36.40
2018-08-07T11:42:46.123Z,36.40
2018-08-07T11:45:16.053Z,36.00
2018-08-07T11:47:43.842Z,36.10
2018-08-07T11:50:13.530Z,36.00
2018-08-07T11:52:41.385Z,35.90
2018-08-07T11:55:10.139Z,36.00
2018-08-07T11:57:37.929Z,36.20
2018-08-07T12:00:07.553Z,36.20
2018-08-07T12:02:35.459Z,36.20
2018-08-07T12:05:03.184Z,36.20
2018-08-07T12:07:30.891Z,35.80
2018-08-07T12:09:58.623Z,35.70
2018-08-07T12:12:26.283Z,35.50
2018-08-07T12:14:54.041Z,35.60
2018-08-07T12:17:21.727Z,35.80
2018-08-07T12:19:50.154Z,36.00
2018-08-07T12:22:18.650Z,35.60
2018-08-07T12:24:47.480Z,35.60
2018-08-07T12:27:15.923Z,35.80
2018-08-07T12:29:44.571Z,35.90
2018-08-07T12:34:41.228Z,36.00
2018-08-07T12:37:09.964Z,35.90
2018-08-07T12:39:38.464Z,36.10
2018-08-07T12:42:06.968Z,36.10
2018-08-07T12:44:35.684Z,36.20
2018-08-07T12:47:04.198Z,36.20
2018-08-07T12:49:32.954Z,36.00
2018-08-07T12:52:01.654Z,36.10
2018-08-07T12:54:30.457Z,36.30
2018-08-07T12:56:59.003Z,36.00
2018-08-07T12:59:27.800Z,36.10
2018-08-07T13:01:56.677Z,36.10
2018-08-07T13:04:25.372Z,36.10
2018-08-07T13:06:54.549Z,36.30
2018-08-07T13:09:23.230Z,36.20
2018-08-07T13:11:51.878Z,36.20
2018-08-07T13:14:20.393Z,36.20
2018-08-07T13:16:48.809Z,36.30
2018-08-07T13:19:17.447Z,36.20
2018-08-07T13:21:46.242Z,36.10
2018-08-07T13:24:15.144Z,36.30
2018-08-07T13:26:43.740Z,36.30
2018-08-07T13:31:40.530Z,36.20
2018-08-07T13:34:09.080Z,36.20
2018-08-07T13:36:38.007Z,36.30
2018-08-07T13:39:09.014Z,36.40
2018-08-07T13:41:37.606Z,36.30
2018-08-07T13:44:07.540Z,36.50
2018-08-07T13:46:36.177Z,36.40
2018-08-07T13:49:05.244Z,36.20
2018-08-07T13:51:34.039Z,36.30
2018-08-07T13:54:02.544Z,36.40
2018-08-07T13:56:31.424Z,36.10
2018-08-07T13:59:00.204Z,36.30
2018-08-07T14:01:28.747Z,36.30
2018-08-07T14:03:57.584Z,36.30
2018-08-07T14:06:26.573Z,36.40
2018-08-07T14:08:55.435Z,36.30
2018-08-07T14:11:24.262Z,36.20
2018-08-07T14:13:52.973Z,36.10
2018-08-07T14:16:21.554Z,36.20
2018-08-07T14:18:50.036Z,36.20
2018-08-07T14:21:18.615Z,36.00
2018-08-07T14:23:47.276Z,35.70
2018-08-07T14:26:15.806Z,35.70
2018-08-07T14:28:44.277Z,35.90
2018-08-07T14:31:12.865Z,36.10
2018-08-07T14:33:41.694Z,36.30
2018-08-07T14:36:10.389Z,36.40
2018-08-07T14:38:39.212Z,36.40
2018-08-07T14:41:07.833Z,36.40
2018-08-07T14:43:36.843Z,36.40
2018-08-07T14:46:05.580Z,36.50
2018-08-07T14:48:36.116Z,36.40
2018-08-07T14:53:33.384Z,36.30
2018-08-07T14:56:01.963Z,36.40
2018-08-07T14:58:30.696Z,36.30
2018-08-07T15:00:59.143Z,36.40
2018-08-07T15:03:27.800Z,36.30
2018-08-07T15:05:56.514Z,36.30
2018-08-07T15:08:25.226Z,36.40
2018-08-07T15:10:53.911Z,36.40
2018-08-07T15:13:22.527Z,36.20
2018-08-07T15:15:51.106Z,36.20
2018-08-07T15:18:19.779Z,36.40
2018-08-07T15:20:48.421Z,36.30
2018-08-07T15:23:17.036Z,36.50
2018-08-07T15:25:45.773Z,36.50
2018-08-07T15:28:14.777Z,36.50
2018-08-07T15:30:43.291Z,36.30
2018-08-07T15:35:40.256Z,36.30
2018-08-07T15:38:08.778Z,36.20
2018-08-07T15:40:37.296Z,36.30
2018-08-07T15:43:05.790Z,36.20
2018-08-07T15:45:34.358Z,36.10
2018-08-07T15:48:02.996Z,36.10
2018-08-07T15:50:31.544Z,36.10
2018-08-07T15:53:00.238Z,36.20
2018-08-07T15:55:29.259Z,36.10
2018-08-07T15:57:57.961Z,36.00
2018-08-07T16:00:31.929Z,36.00
2018-08-07T16:03:01.646Z,35.90
2018-08-07T16:05:30.331Z,35.90
2018-08-07T16:07:59.208Z,35.90
2018-08-07T16:10:27.808Z,35.90
2018-08-07T16:12:56.616Z,35.80
2018-08-07T16:15:25.268Z,35.80
2018-08-07T16:17:54.359Z,35.80
2018-08-07T16:20:23.681Z,35.90
2018-08-07T16:22:52.655Z,35.90
2018-08-07T16:25:21.851Z,35.90
2018-08-07T16:30:27.558Z,35.80
2018-08-07T16:32:56.299Z,35.70
2018-08-07T16:35:25.009Z,35.70
2018-08-07T16:37:53.547Z,35.70
2018-08-07T16:40:23.722Z,35.70
2018-08-07T16:42:53.997Z,35.70
2018-08-07T16:45:23.477Z,35.60
2018-08-07T16:47:52.133Z,35.50
2018-08-07T16:50:26.566Z,35.50
2018-08-07T16:52:56.243Z,35.50
2018-08-07T16:55:26.462Z,35.50
2018-08-07T16:57:55.157Z,35.50
2018-08-07T17:00:23.899Z,35.50
2018-08-07T17:02:52.804Z,35.40
2018-08-07T17:07:50.301Z,35.30
2018-08-07T17:10:24.889Z,35.20
2018-08-07T17:12:53.948Z,35.00
2018-08-07T17:15:22.725Z,35.00
2018-08-07T17:17:52.102Z,35.00
2018-08-07T17:20:22.018Z,34.80
2018-08-07T17:22:51.225Z,34.70
2018-08-07T17:25:21.168Z,34.60
2018-08-07T17:27:50.281Z,34.40
2018-08-07T17:30:21.638Z,34.30
2018-08-07T17:32:50.395Z,34.10
2018-08-07T17:37:50.467Z,33.90
2018-08-07T17:40:20.962Z,33.80
2018-08-07T17:42:49.816Z,33.70
2018-08-07T17:45:18.640Z,33.70
2018-08-07T17:47:47.427Z,33.50
2018-08-07T17:50:21.017Z,33.50
2018-08-07T17:52:49.901Z,33.40
2018-08-07T17:55:18.671Z,33.30
2018-08-07T17:57:48.126Z,33.20
2018-08-07T18:00:18.365Z,33.20
2018-08-07T18:02:47.252Z,33.10
2018-08-07T18:05:16.079Z,33.10
2018-08-07T18:07:46.316Z,33.00
2018-08-07T18:10:16.590Z,32.90
2018-08-07T18:12:45.254Z,32.80
2018-08-07T18:15:15.763Z,32.70
2018-08-07T18:17:44.838Z,32.60
2018-08-07T18:20:16.254Z,32.50
2018-08-07T18:22:44.910Z,32.40
2018-08-07T18:25:13.496Z,32.20
2018-08-07T18:27:42.345Z,32.10
2018-08-07T18:30:14.433Z,32.00
2018-08-07T18:35:13.552Z,31.70
2018-08-07T18:37:42.244Z,31.60
2018-08-07T18:40:10.920Z,31.40
2018-08-07T18:42:39.514Z,31.30
2018-08-07T18:45:10.129Z,31.20
2018-08-07T18:47:39.366Z,31.10
2018-08-07T18:50:10.262Z,30.90
2018-08-07T18:55:09.307Z,30.60
2018-08-07T18:57:38.048Z,30.50
2018-08-07T19:00:10.343Z,30.40
2018-08-07T19:02:39.699Z,30.30
2018-08-07T19:07:37.800Z,30.00
2018-08-07T19:10:06.952Z,29.90
2018-08-07T19:12:35.602Z,29.80
2018-08-07T19:17:32.981Z,29.50
2018-08-07T19:20:01.909Z,29.40
2018-08-07T19:24:59.841Z,29.00
2018-08-07T19:27:28.536Z,28.90
2018-08-07T19:32:25.601Z,28.80
2018-08-07T19:34:54.282Z,28.70
2018-08-07T19:37:22.978Z,28.60
2018-08-07T19:39:51.695Z,28.40
2018-08-07T19:42:20.391Z,28.40
2018-08-07T19:44:49.146Z,28.30
2018-08-07T19:47:17.781Z,28.30
2018-08-07T19:49:46.437Z,28.20
2018-08-07T19:52:15.113Z,28.10
2018-08-07T19:57:12.464Z,28.00
2018-08-07T19:59:41.201Z,28.00
2018-08-07T20:02:10.038Z,27.90
2018-08-07T20:04:38.732Z,27.80
2018-08-07T20:07:07.573Z,27.80
2018-08-07T20:09:36.445Z,27.70
2018-08-07T20:12:05.100Z,27.60
2018-08-07T20:14:33.875Z,27.60
2018-08-07T20:17:02.692Z,27.60
2018-08-07T20:19:31.468Z,27.60
2018-08-07T20:22:00.295Z,27.60
2018-08-07T20:24:29.039Z,27.60
2018-08-07T20:26:57.755Z,27.60
2018-08-07T20:29:26.490Z,27.70
2018-08-07T20:31:55.195Z,27.70
2018-08-07T20:34:23.903Z,27.60
2018-08-07T20:36:52.718Z,27.60
2018-08-07T20:39:21.638Z,27.70
2018-08-07T20:44:18.726Z,27.60
2018-08-07T20:46:47.443Z,27.60
2018-08-07T20:49:16.157Z,27.60
2018-08-07T20:51:44.892Z,27.60
2018-08-07T20:54:13.568Z,27.60
2018-08-07T20:56:42.225Z,27.50
2018-08-07T20:59:10.940Z,27.50
2018-08-07T21:01:39.595Z,27.50
2018-08-07T21:04:08.290Z,27.80
2018-08-07T21:06:36.988Z,27.80
2018-08-07T21:09:07.802Z,27.90
2018-08-07T21:11:36.518Z,27.80
2018-08-07T21:14:05.235Z,27.80
2018-08-07T21:16:34.214Z,27.70
2018-08-07T21:19:02.886Z,27.70
2018-08-07T21:21:32.029Z,27.60
2018-08-07T21:24:00.841Z,27.60
2018-08-07T21:26:29.568Z,27.60
2018-08-07T21:28:58.229Z,27.50
2018-08-07T21:31:26.885Z,27.70
2018-08-07T21:33:55.539Z,27.90
2018-08-07T21:36:24.321Z,28.00
2018-08-07T21:38:53.100Z,28.00
2018-08-07T21:41:21.934Z,28.10
2018-08-07T21:43:50.626Z,28.10
2018-08-07T21:46:19.239Z,28.00
2018-08-07T21:48:47.896Z,27.90
2018-08-07T21:51:16.571Z,27.80
2018-08-07T21:53:45.293Z,27.80
2018-08-07T21:56:13.983Z,27.80
2018-08-07T21:58:42.688Z,27.80
2018-08-07T22:01:11.513Z,27.70
2018-08-07T22:03:40.246Z,27.60
2018-08-07T22:06:09.088Z,27.60
2018-08-07T22:08:37.943Z,27.50
2018-08-07T22:13:34.950Z,27.40
2018-08-07T22:16:03.569Z,27.40
2018-08-07T22:18:32.305Z,27.40
2018-08-07T22:21:01.087Z,27.40
2018-08-07T22:23:29.836Z,27.30
2018-08-07T22:25:58.431Z,27.20
2018-08-07T22:28:27.067Z,27.10
2018-08-07T22:30:55.633Z,27.10
2018-08-07T22:33:24.219Z,27.10
2018-08-07T22:35:52.915Z,27.10
2018-08-07T22:38:21.590Z,27.00
2018-08-07T22:40:50.305Z,27.00
2018-08-07T22:43:18.997Z,26.90
2018-08-07T22:45:47.797Z,26.90
2018-08-07T22:50:44.728Z,27.00
2018-08-07T22:53:13.384Z,27.00
2018-08-07T22:58:10.556Z,26.90
2018-08-07T23:00:39.232Z,26.80
2018-08-07T23:03:08.007Z,26.80
2018-08-07T23:05:36.742Z,26.80
2018-08-07T23:08:05.478Z,26.70
2018-08-07T23:10:34.038Z,26.70
2018-08-07T23:13:02.750Z,26.70
2018-08-07T23:15:31.465Z,26.70
2018-08-07T23:18:00.142Z,26.50
2018-08-07T23:20:28.817Z,26.50
2018-08-07T23:22:57.953Z,26.40
2018-08-07T23:25:26.630Z,26.30
2018-08-07T23:27:55.299Z,26.30
2018-08-07T23:30:23.960Z,26.20
2018-08-07T23:32:52.675Z,26.10
2018-08-07T23:35:21.392Z,26.10
2018-08-07T23:37:50.087Z,26.00
2018-08-07T23:40:18.943Z,25.90
2018-08-07T23:42:47.619Z,25.70
2018-08-07T23:45:16.657Z,25.70
2018-08-07T23:47:45.390Z,25.70
2018-08-07T23:50:14.646Z,25.70
2018-08-07T23:52:43.301Z,25.70
2018-08-07T23:57:40.413Z,25.70
